createdAt,value
2022-09-27T00:01:00.894Z,98843.25
2022-09-27T00:03:29.396Z,98843.25
2022-09-27T00:06:11.652Z,98835.75
2022-09-27T00:08:38.777Z,98835.13
2022-09-27T00:11:20.728Z,98826.34
2022-09-27T00:13:47.338Z,98826.19
2022-09-27T00:16:13.847Z,98826.50
2022-09-27T00:18:40.768Z,98832.09
2022-09-27T00:21:12.622Z,98826.19
2022-09-27T00:23:39.908Z,98827.13
2022-09-27T00:26:08.392Z,98827.75
2022-09-27T00:28:35.535Z,98828.75
2022-09-27T00:31:02.262Z,98825.88
2022-09-27T00:33:28.986Z,98835.41
2022-09-27T00:35:55.532Z,98832.41
2022-09-27T00:38:21.943Z,98834.16
2022-09-27T00:40:48.517Z,98825.72
2022-09-27T00:43:21.625Z,98826.97
2022-09-27T00:45:52.799Z,98826.03
2022-09-27T00:48:25.149Z,98825.50
2022-09-27T00:50:58.068Z,98817.69
2022-09-27T00:53:34.328Z,98822.78
2022-09-27T00:56:05.985Z,98820.41
2022-09-27T00:58:39.927Z,98813.38
2022-09-27T01:01:10.947Z,98817.69
2022-09-27T01:04:03.465Z,98821.38
2022-09-27T01:06:30.098Z,98807.81
2022-09-27T01:08:56.618Z,98814.19
2022-09-27T01:11:44.931Z,98810.53
2022-09-27T01:14:39.930Z,98813.88
2022-09-27T01:17:44.276Z,98811.47
2022-09-27T01:20:13.841Z,98814.34
2022-09-27T01:23:20.123Z,98813.41
2022-09-27T01:25:55.907Z,98816.59
2022-09-27T01:28:41.315Z,98816.09
2022-09-27T01:31:45.816Z,98805.88
2022-09-27T01:34:38.409Z,98808.91
2022-09-27T01:37:26.719Z,98794.56
2022-09-27T01:40:21.504Z,98801.44
2022-09-27T01:43:35.539Z,98795.97
2022-09-27T01:46:11.056Z,98789.13
2022-09-27T01:49:00.408Z,98799.31
2022-09-27T01:51:44.564Z,98789.13
2022-09-27T01:54:18.954Z,98784.31
2022-09-27T01:56:57.676Z,98794.56
2022-09-27T01:59:36.428Z,98784.16
2022-09-27T02:02:22.271Z,98775.22
2022-09-27T02:05:27.153Z,98782.41
2022-09-27T02:08:03.719Z,98778.44
2022-09-27T02:10:41.031Z,98780.03
2022-09-27T02:13:34.406Z,98780.81
2022-09-27T02:16:45.901Z,98781.28
2022-09-27T02:19:50.806Z,98775.53
2022-09-27T02:22:42.758Z,98774.75
2022-09-27T02:25:28.642Z,98780.03
2022-09-27T02:28:22.821Z,98779.72
2022-09-27T02:30:49.986Z,98780.66
2022-09-27T02:33:33.803Z,98775.41
2022-09-27T02:36:02.239Z,98776.66
2022-09-27T02:38:28.994Z,98770.59
2022-09-27T02:40:56.829Z,98770.44
2022-09-27T02:43:27.349Z,98773.94
2022-09-27T02:46:13.708Z,98784.63
2022-09-27T02:49:10.916Z,98776.50
2022-09-27T02:52:06.980Z,98783.53
2022-09-27T02:55:00.047Z,98780.50
2022-09-27T02:58:41.432Z,98783.22
2022-09-27T03:01:53.549Z,98779.53
2022-09-27T03:04:41.211Z,98776.03
2022-09-27T03:07:08.435Z,98776.84
2022-09-27T03:09:47.973Z,98779.25
2022-09-27T03:12:15.900Z,98770.94
2022-09-27T03:14:42.474Z,98775.38
2022-09-27T03:17:27.693Z,98775.38
2022-09-27T03:20:12.689Z,98776.69
2022-09-27T03:23:05.891Z,98773.16
2022-09-27T03:25:32.349Z,98781.13
2022-09-27T03:27:58.928Z,98774.28
2022-09-27T03:30:25.520Z,98781.59
2022-09-27T03:32:52.002Z,98777.31
2022-09-27T03:35:42.836Z,98781.47
2022-09-27T03:38:11.038Z,98783.38
2022-09-27T03:40:38.783Z,98782.59
2022-09-27T03:43:06.933Z,98781.44
2022-09-27T03:45:34.270Z,98791.38
2022-09-27T03:48:05.092Z,98785.47
2022-09-27T03:50:31.704Z,98787.81
2022-09-27T03:52:58.367Z,98782.56
2022-09-27T03:55:26.088Z,98784.81
2022-09-27T03:57:52.537Z,98776.81
2022-09-27T04:00:19.640Z,98784.97
2022-09-27T04:02:46.316Z,98785.78
2022-09-27T04:05:26.146Z,98794.69
2022-09-27T04:08:13.589Z,98794.41
2022-09-27T04:10:42.020Z,98796.44
2022-09-27T04:13:08.760Z,98798.19
2022-09-27T04:15:43.189Z,98799.16
2022-09-27T04:18:30.134Z,98789.44
2022-09-27T04:21:05.875Z,98796.94
2022-09-27T04:23:35.116Z,98802.03
2022-09-27T04:26:01.851Z,98805.03
2022-09-27T04:28:42.082Z,98789.38
2022-09-27T04:31:08.759Z,98798.66
2022-09-27T04:34:05.861Z,98799.91
2022-09-27T04:36:35.054Z,98797.22
2022-09-27T04:39:18.391Z,98804.56
2022-09-27T04:41:46.856Z,98808.06
2022-09-27T04:44:13.385Z,98811.09
2022-09-27T04:46:43.591Z,98807.41
2022-09-27T04:49:11.421Z,98815.09
2022-09-27T04:51:37.967Z,98815.28
2022-09-27T04:54:05.010Z,98816.38
2022-09-27T04:56:40.581Z,98820.34
2022-09-27T04:59:10.752Z,98821.47
2022-09-27T05:01:38.926Z,98825.09
2022-09-27T05:04:28.564Z,98821.31
2022-09-27T05:06:57.330Z,98825.59
2022-09-27T05:09:35.447Z,98822.56
2022-09-27T05:12:03.334Z,98821.91
2022-09-27T05:14:48.760Z,98826.09
2022-09-27T05:17:15.222Z,98825.25
2022-09-27T05:19:44.381Z,98838.66
2022-09-27T05:22:35.224Z,98835.34
2022-09-27T05:25:01.980Z,98834.09
2022-09-27T05:27:28.810Z,98834.41
2022-09-27T05:29:56.732Z,98839.66
2022-09-27T05:32:30.493Z,98845.09
2022-09-27T05:35:19.222Z,98846.66
2022-09-27T05:38:04.529Z,98849.38
2022-09-27T05:40:42.830Z,98846.19
2022-09-27T05:43:11.254Z,98849.69
2022-09-27T05:45:38.222Z,98846.81
2022-09-27T05:48:06.664Z,98848.09
2022-09-27T05:50:39.239Z,98853.06
2022-09-27T05:53:06.267Z,98858.81
2022-09-27T05:55:33.368Z,98851.44
2022-09-27T05:58:03.979Z,98857.34
2022-09-27T06:00:39.177Z,98861.66
2022-09-27T06:03:22.947Z,98862.63
2022-09-27T06:06:19.266Z,98869.50
2022-09-27T06:08:49.814Z,98858.66
2022-09-27T06:11:18.840Z,98865.00
2022-09-27T06:13:46.633Z,98873.31
2022-09-27T06:16:13.189Z,98874.38
2022-09-27T06:18:42.764Z,98872.53
2022-09-27T06:21:09.907Z,98873.78
2022-09-27T06:23:37.545Z,98875.41
2022-09-27T06:26:16.539Z,98877.63
2022-09-27T06:29:12.520Z,98872.84
2022-09-27T06:31:45.941Z,98883.38
2022-09-27T06:34:32.940Z,98879.28
2022-09-27T06:36:59.524Z,98879.28
2022-09-27T06:39:28.496Z,98882.31
2022-09-27T06:42:18.120Z,98884.16
2022-09-27T06:45:07.811Z,98887.66
2022-09-27T06:47:55.291Z,98896.19
2022-09-27T06:50:36.284Z,98896.66
2022-09-27T06:53:05.085Z,98897.91
2022-09-27T06:55:31.622Z,98908.59
2022-09-27T06:58:18.958Z,98910.84
2022-09-27T07:01:05.881Z,98913.72
2022-09-27T07:04:11.290Z,98908.78
2022-09-27T07:06:50.325Z,98911.03
2022-09-27T07:09:20.885Z,98915.06
2022-09-27T07:11:47.681Z,98910.41
2022-09-27T07:14:14.108Z,98919.38
2022-09-27T07:16:40.591Z,98921.59
2022-09-27T07:19:07.906Z,98919.31
2022-09-27T07:21:34.764Z,98932.53
2022-09-27T07:24:02.613Z,98942.78
2022-09-27T07:26:29.869Z,98944.41
2022-09-27T07:28:56.829Z,98947.22
2022-09-27T07:31:26.184Z,98946.06
2022-09-27T07:33:53.578Z,98951.78
2022-09-27T07:36:20.011Z,98951.63
2022-09-27T07:38:47.182Z,98962.34
2022-09-27T07:41:16.927Z,98959.78
2022-09-27T07:43:44.987Z,98964.59
2022-09-27T07:46:11.992Z,98966.34
2022-09-27T07:49:07.017Z,98976.06
2022-09-27T07:51:40.427Z,98971.56
2022-09-27T07:54:27.240Z,98981.31
2022-09-27T07:57:31.040Z,98988.94
2022-09-27T07:59:58.973Z,98993.56
2022-09-27T08:02:25.415Z,98994.91
2022-09-27T08:04:53.149Z,98993.50
2022-09-27T08:07:19.712Z,98996.56
2022-09-27T08:09:50.145Z,99002.00
2022-09-27T08:12:17.391Z,99009.41
2022-09-27T08:14:48.322Z,99003.19
2022-09-27T08:17:16.305Z,99010.88
2022-09-27T08:20:17.821Z,99013.63
2022-09-27T08:22:47.156Z,99019.72
2022-09-27T08:25:31.203Z,99022.50
2022-09-27T08:28:09.498Z,99015.16
2022-09-27T08:30:41.680Z,99031.78
2022-09-27T08:33:09.108Z,99027.34
2022-09-27T08:35:36.212Z,99034.75
2022-09-27T08:38:05.103Z,99037.94
2022-09-27T08:40:51.070Z,99037.16
2022-09-27T08:43:20.651Z,99041.13
2022-09-27T08:46:11.238Z,99058.22
2022-09-27T08:48:39.183Z,99039.06
2022-09-27T08:51:10.797Z,99042.47
2022-09-27T08:53:58.528Z,99048.22
2022-09-27T08:56:26.507Z,99049.16
2022-09-27T08:58:55.846Z,99039.94
2022-09-27T09:01:31.286Z,99051.38
2022-09-27T09:04:09.191Z,99052.88
2022-09-27T09:07:02.824Z,99044.44
2022-09-27T09:10:02.784Z,99060.03
2022-09-27T09:12:59.983Z,99057.84
2022-09-27T09:16:15.925Z,99055.75
2022-09-27T09:18:54.226Z,99060.88
2022-09-27T09:22:13.565Z,99057.38
2022-09-27T09:24:57.947Z,99056.13
2022-09-27T09:27:53.463Z,99049.06
2022-09-27T09:30:23.924Z,99054.34
2022-09-27T09:33:07.747Z,99061.53
2022-09-27T09:36:05.442Z,99051.81
2022-09-27T09:38:53.890Z,99066.84
2022-09-27T09:41:56.679Z,99069.25
2022-09-27T09:44:28.739Z,99064.59
2022-09-27T09:47:01.895Z,99068.13
2022-09-27T09:49:37.949Z,99066.53
2022-09-27T09:52:14.615Z,99067.00
2022-09-27T09:54:48.229Z,99061.41
2022-09-27T09:57:27.895Z,99055.97
2022-09-27T10:00:01.135Z,99064.59
2022-09-27T10:02:39.703Z,99066.53
2022-09-27T10:05:37.940Z,99075.00
2022-09-27T10:08:15.802Z,99066.38
2022-09-27T10:10:44.895Z,99070.81
2022-09-27T10:13:56.624Z,99068.56
2022-09-27T10:16:24.059Z,99066.81
2022-09-27T10:18:56.224Z,99065.22
2022-09-27T10:21:28.207Z,99064.78
2022-09-27T10:24:07.293Z,99067.16
2022-09-27T10:26:51.871Z,99062.31
2022-09-27T10:29:37.981Z,99069.16
2022-09-27T10:32:22.078Z,99056.53
2022-09-27T10:34:51.240Z,99059.44
2022-09-27T10:37:22.201Z,99063.78
2022-09-27T10:40:16.264Z,99068.41
2022-09-27T10:42:42.799Z,99072.72
2022-09-27T10:45:28.504Z,99064.28
2022-09-27T10:48:04.962Z,99067.16
2022-09-27T10:50:58.852Z,99063.03
2022-09-27T10:53:45.885Z,99058.38
2022-09-27T10:56:29.368Z,99061.25
2022-09-27T10:58:58.053Z,99058.69
2022-09-27T11:01:25.973Z,99060.78
2022-09-27T11:04:20.225Z,99066.06
2022-09-27T11:06:47.075Z,99068.78
2022-09-27T11:09:26.416Z,99076.09
2022-09-27T11:12:10.760Z,99084.91
2022-09-27T11:14:38.649Z,99092.72
2022-09-27T11:17:25.151Z,99095.81
2022-09-27T11:20:25.419Z,99101.91
2022-09-27T11:23:28.156Z,99107.66
2022-09-27T11:26:12.950Z,99108.41
2022-09-27T11:28:51.094Z,99101.50
2022-09-27T11:31:33.285Z,99094.97
2022-09-27T11:34:40.878Z,99104.72
2022-09-27T11:37:29.337Z,99100.81
2022-09-27T11:40:11.051Z,99102.66
2022-09-27T11:43:03.063Z,99096.78
2022-09-27T11:46:16.786Z,99101.50
2022-09-27T11:49:26.260Z,99099.81
2022-09-27T11:52:14.668Z,99105.41
2022-09-27T11:55:04.146Z,99104.50
2022-09-27T11:57:38.595Z,99109.44
2022-09-27T12:00:18.553Z,99111.19
2022-09-27T12:03:11.731Z,99109.88
2022-09-27T12:05:58.293Z,99110.88
2022-09-27T12:08:44.879Z,99105.91
2022-09-27T12:11:30.589Z,99124.03
2022-09-27T12:14:04.449Z,99116.69
2022-09-27T12:16:32.201Z,99115.13
2022-09-27T12:19:04.417Z,99117.00
2022-09-27T12:21:51.799Z,99119.63
2022-09-27T12:24:21.948Z,99117.53
2022-09-27T12:27:16.786Z,99125.63
2022-09-27T12:29:47.267Z,99128.22
2022-09-27T12:32:33.966Z,99120.50
2022-09-27T12:35:19.028Z,99115.25
2022-09-27T12:38:00.867Z,99124.88
2022-09-27T12:40:31.966Z,99121.19
2022-09-27T12:43:12.246Z,99129.13
2022-09-27T12:46:13.173Z,99126.06
2022-09-27T12:49:17.259Z,99128.66
2022-09-27T12:51:55.474Z,99128.41
2022-09-27T12:54:36.446Z,99123.31
2022-09-27T12:57:18.416Z,99127.03
2022-09-27T13:00:09.119Z,99121.16
2022-09-27T13:06:04.313Z,99125.19
2022-09-27T13:08:38.856Z,99127.16
2022-09-27T13:11:29.872Z,99122.56
2022-09-27T13:14:05.423Z,99125.88
2022-09-27T13:16:43.361Z,99138.84
2022-09-27T13:19:35.611Z,99136.38
2022-09-27T13:22:05.381Z,99133.13
2022-09-27T13:24:52.055Z,99130.56
2022-09-27T13:27:47.689Z,99127.03
2022-09-27T13:30:20.916Z,99137.00
2022-09-27T13:33:09.576Z,99132.13
2022-09-27T13:36:07.723Z,99131.06
2022-09-27T13:38:36.675Z,99129.00
2022-09-27T13:41:18.885Z,99129.69
2022-09-27T13:44:06.448Z,99135.13
2022-09-27T13:47:06.573Z,99136.47
2022-09-27T13:49:38.228Z,99125.13
2022-09-27T13:52:24.096Z,99137.94
2022-09-27T13:55:52.577Z,99132.00
2022-09-27T13:59:02.553Z,99133.09
2022-09-27T14:01:50.290Z,99140.59
2022-09-27T14:04:37.012Z,99140.72
2022-09-27T14:07:06.768Z,99153.59
2022-09-27T14:09:39.150Z,99156.72
2022-09-27T14:12:20.692Z,99158.41
2022-09-27T14:14:50.721Z,99165.69
2022-09-27T14:17:18.616Z,99168.22
2022-09-27T14:19:45.562Z,99177.94
2022-09-27T14:22:19.415Z,99185.69
2022-09-27T14:25:17.754Z,99182.94
2022-09-27T14:27:46.897Z,99183.00
2022-09-27T14:30:29.974Z,99184.53
2022-09-27T14:33:34.389Z,99164.97
2022-09-27T14:36:50.117Z,99169.47
2022-09-27T14:39:30.042Z,99174.44
2022-09-27T14:41:57.027Z,99167.75
2022-09-27T14:44:27.975Z,99167.19
2022-09-27T14:47:18.476Z,99166.97
2022-09-27T14:49:53.324Z,99168.78
2022-09-27T14:52:28.977Z,99168.47
2022-09-27T14:55:01.078Z,99171.25
2022-09-27T14:57:30.075Z,99164.38
2022-09-27T14:59:58.109Z,99165.13
2022-09-27T15:02:26.397Z,99169.31
2022-09-27T15:04:54.654Z,99160.50
2022-09-27T15:07:22.527Z,99173.84
2022-09-27T15:09:50.867Z,99172.50
2022-09-27T15:12:25.334Z,99168.28
2022-09-27T15:14:54.572Z,99166.91
2022-09-27T15:17:21.963Z,99169.94
2022-09-27T15:20:05.157Z,99171.47
2022-09-27T15:22:46.690Z,99174.44
2022-09-27T15:25:32.635Z,99182.53
2022-09-27T15:28:20.451Z,99178.06
2022-09-27T15:30:55.559Z,99181.97
2022-09-27T15:33:28.771Z,99179.44
2022-09-27T15:35:58.543Z,99172.75
2022-09-27T15:38:43.821Z,99179.09
2022-09-27T15:41:13.264Z,99177.22
2022-09-27T15:43:49.051Z,99181.19
2022-09-27T15:46:34.520Z,99182.22
2022-09-27T15:49:21.783Z,99179.56
2022-09-27T15:51:53.792Z,99179.75
2022-09-27T15:54:21.981Z,99176.56
2022-09-27T15:56:55.088Z,99183.38
2022-09-27T15:59:27.805Z,99181.06
2022-09-27T16:01:57.043Z,99182.03
2022-09-27T16:04:23.659Z,99180.56
2022-09-27T16:06:50.809Z,99181.00
2022-09-27T16:09:19.292Z,99183.78
2022-09-27T16:11:50.418Z,99184.69
2022-09-27T16:14:19.139Z,99187.09
2022-09-27T16:16:49.155Z,99199.28
2022-09-27T16:19:15.923Z,99200.91
2022-09-27T16:21:47.596Z,99196.16
2022-09-27T16:24:14.777Z,99196.28
2022-09-27T16:26:41.195Z,99213.56
2022-09-27T16:29:13.188Z,99209.69
2022-09-27T16:31:42.819Z,99209.06
2022-09-27T16:34:11.064Z,99212.59
2022-09-27T16:36:39.365Z,99206.78
2022-09-27T16:39:13.523Z,99204.38
2022-09-27T16:41:41.285Z,99208.59
2022-09-27T16:44:09.561Z,99204.38
2022-09-27T16:46:39.399Z,99201.78
2022-09-27T16:49:25.887Z,99209.47
2022-09-27T16:52:03.471Z,99211.59
2022-09-27T16:54:30.698Z,99207.59
2022-09-27T16:56:58.729Z,99210.00
2022-09-27T16:59:25.473Z,99205.19
2022-09-27T17:01:52.404Z,99200.25
2022-09-27T17:04:18.940Z,99201.69
2022-09-27T17:06:45.464Z,99210.59
2022-09-27T17:09:12.066Z,99202.47
2022-09-27T17:11:38.793Z,99201.69
2022-09-27T17:14:05.544Z,99211.69
2022-09-27T17:16:32.059Z,99209.72
2022-09-27T17:18:58.657Z,99212.19
2022-09-27T17:21:25.196Z,99214.91
2022-09-27T17:23:51.713Z,99210.09
2022-09-27T17:26:20.963Z,99213.31
2022-09-27T17:28:48.077Z,99208.97
2022-09-27T17:31:17.599Z,99211.28
2022-09-27T17:33:47.541Z,99211.19
2022-09-27T17:36:17.379Z,99210.91
2022-09-27T17:38:45.537Z,99211.72
2022-09-27T17:41:15.082Z,99213.09
2022-09-27T17:43:49.995Z,99214.31
2022-09-27T17:46:22.657Z,99215.13
2022-09-27T17:49:08.507Z,99211.09
2022-09-27T17:51:38.137Z,99221.75
2022-09-27T17:54:07.397Z,99210.59
2022-09-27T17:56:41.960Z,99215.13
2022-09-27T17:59:10.439Z,99219.72
2022-09-27T18:01:38.810Z,99223.44
2022-09-27T18:04:09.689Z,99223.75
2022-09-27T18:06:41.337Z,99218.53
2022-09-27T18:09:09.953Z,99220.72
2022-09-27T18:11:38.461Z,99218.34
2022-09-27T18:14:05.834Z,99225.25
2022-09-27T18:16:36.959Z,99219.81
2022-09-27T18:19:06.559Z,99222.22
2022-09-27T18:21:34.231Z,99219.41
2022-09-27T18:24:04.466Z,99218.19
2022-09-27T18:26:32.364Z,99219.00
2022-09-27T18:29:07.612Z,99221.75
2022-09-27T18:31:34.845Z,99219.72
2022-09-27T18:34:03.032Z,99215.06
2022-09-27T18:36:29.811Z,99232.78
2022-09-27T18:39:05.860Z,99227.94
2022-09-27T18:41:33.956Z,99227.63
2022-09-27T18:44:03.527Z,99232.63
2022-09-27T18:46:35.854Z,99233.13
2022-09-27T18:49:06.176Z,99221.25
2022-09-27T18:51:34.018Z,99229.31
2022-09-27T18:54:04.786Z,99226.59
2022-09-27T18:56:31.634Z,99224.06
2022-09-27T18:58:58.122Z,99233.28
2022-09-27T19:01:25.807Z,99230.06
2022-09-27T19:03:53.251Z,99231.75
2022-09-27T19:06:23.790Z,99231.75
2022-09-27T19:08:55.651Z,99233.75
2022-09-27T19:11:22.578Z,99233.22
2022-09-27T19:13:54.011Z,99236.88
2022-09-27T19:16:21.638Z,99229.72
2022-09-27T19:18:48.574Z,99229.44
2022-09-27T19:21:21.990Z,99231.56
2022-09-27T19:23:49.800Z,99234.25
2022-09-27T19:26:19.160Z,99236.59
2022-09-27T19:28:46.927Z,99237.03
2022-09-27T19:31:15.917Z,99226.59
2022-09-27T19:33:42.696Z,99230.97
2022-09-27T19:36:11.487Z,99225.13
2022-09-27T19:38:38.892Z,99229.75
2022-09-27T19:41:08.937Z,99225.50
2022-09-27T19:43:36.575Z,99220.38
2022-09-27T19:46:08.402Z,99227.91
2022-09-27T19:48:39.032Z,99218.47
2022-09-27T19:51:06.853Z,99219.78
2022-09-27T19:53:34.551Z,99220.59
2022-09-27T19:56:04.444Z,99220.59
2022-09-27T19:58:32.168Z,99217.97
2022-09-27T20:01:06.387Z,99218.13
2022-09-27T20:03:34.776Z,99229.22
2022-09-27T20:06:02.505Z,99219.41
2022-09-27T20:08:29.959Z,99220.53
2022-09-27T20:11:01.414Z,99223.44
2022-09-27T20:13:32.793Z,99221.31
2022-09-27T20:16:10.964Z,99224.53
2022-09-27T20:18:46.027Z,99236.47
2022-09-27T20:21:13.205Z,99225.50
2022-09-27T20:23:40.144Z,99231.91
2022-09-27T20:26:14.953Z,99231.91
2022-09-27T20:28:47.140Z,99235.13
2022-09-27T20:31:16.249Z,99222.06
2022-09-27T20:33:44.075Z,99221.53
2022-09-27T20:36:36.564Z,99222.38
2022-09-27T20:39:06.961Z,99222.66
2022-09-27T20:41:36.921Z,99221.25
2022-09-27T20:44:06.965Z,99222.72
2022-09-27T20:46:35.171Z,99221.34
2022-09-27T20:49:05.577Z,99226.59
2022-09-27T20:51:34.590Z,99227.09
2022-09-27T20:54:02.523Z,99228.25
2022-09-27T20:56:31.862Z,99226.38
2022-09-27T20:59:00.728Z,99226.22
2022-09-27T21:01:28.360Z,99227.13
2022-09-27T21:03:57.128Z,99229.81
2022-09-27T21:06:24.310Z,99234.63
2022-09-27T21:08:51.473Z,99232.81
2022-09-27T21:11:18.888Z,99235.22
2022-09-27T21:13:46.385Z,99236.09
2022-09-27T21:16:15.568Z,99235.59
2022-09-27T21:18:43.114Z,99232.06
2022-09-27T21:21:12.532Z,99236.09
2022-09-27T21:23:44.551Z,99224.25
2022-09-27T21:26:13.104Z,99225.66
2022-09-27T21:28:43.829Z,99231.84
2022-09-27T21:31:12.980Z,99227.41
2022-09-27T21:33:40.347Z,99232.75
2022-09-27T21:36:09.993Z,99231.03
2022-09-27T21:38:38.059Z,99233.88
2022-09-27T21:41:14.646Z,99227.88
2022-09-27T21:43:42.551Z,99232.44
2022-09-27T21:46:20.126Z,99227.81
2022-09-27T21:48:48.843Z,99229.44
2022-09-27T21:51:21.341Z,99223.22
2022-09-27T21:53:53.449Z,99224.31
2022-09-27T21:56:21.268Z,99218.69
2022-09-27T21:58:47.818Z,99218.97
2022-09-27T22:01:19.709Z,99219.56
2022-09-27T22:03:47.318Z,99223.97
2022-09-27T22:06:39.294Z,99209.69
2022-09-27T22:09:08.338Z,99220.50
2022-09-27T22:11:38.769Z,99220.16
2022-09-27T22:14:09.592Z,99214.31
2022-09-27T22:16:36.497Z,99212.91
2022-09-27T22:19:03.447Z,99221.25
2022-09-27T22:21:33.059Z,99222.88
2022-09-27T22:24:07.254Z,99221.16
2022-09-27T22:26:36.358Z,99216.88
2022-09-27T22:29:03.265Z,99217.75
2022-09-27T22:31:29.763Z,99208.00
2022-09-27T22:34:03.515Z,99212.13
2022-09-27T22:36:30.919Z,99206.94
2022-09-27T22:38:57.842Z,99208.97
2022-09-27T22:41:24.610Z,99200.69
2022-09-27T22:43:53.350Z,99198.66
2022-09-27T22:46:20.876Z,99201.13
2022-09-27T22:48:47.844Z,99201.50
2022-09-27T22:51:14.330Z,99192.31
2022-09-27T22:53:40.977Z,99195.00
2022-09-27T22:56:13.775Z,99196.00
2022-09-27T22:58:42.301Z,99193.81
2022-09-27T23:01:10.731Z,99192.22
2022-09-27T23:03:37.395Z,99196.31
2022-09-27T23:06:04.796Z,99193.88
2022-09-27T23:08:36.231Z,99187.09
2022-09-27T23:11:11.838Z,99187.19
2022-09-27T23:13:40.877Z,99185.34
2022-09-27T23:16:10.304Z,99182.13
2022-09-27T23:18:38.157Z,99182.13
2022-09-27T23:21:07.260Z,99181.03
2022-09-27T23:23:42.452Z,99178.84
2022-09-27T23:26:12.008Z,99174.09
2022-09-27T23:28:39.136Z,99167.13
2022-09-27T23:31:14.353Z,99166.06
2022-09-27T23:33:44.264Z,99159.09
2022-09-27T23:36:15.136Z,99159.59
2022-09-27T23:38:43.397Z,99169.91
2022-09-27T23:41:09.973Z,99165.94
2022-09-27T23:43:36.585Z,99161.66
2022-09-27T23:46:04.803Z,99164.50
2022-09-27T23:48:31.344Z,99157.81
2022-09-27T23:50:57.795Z,99156.03
2022-09-27T23:53:24.730Z,99146.28
2022-09-27T23:56:02.591Z,99152.72
2022-09-27T23:58:47.402Z,99154.56
